Time;durP1;ratioP1;P1;durP2;ratioP2;P2;SDS_P1;SDS_P2;PMS_P1;PMS_P2;Temp;Humidity;BMP_temperature;BMP_pressure;BME280_temperature;BME280_humidity;BME280_pressure;Samples;Min_cycle;Max_cycle;Signal;HPM_P1;HPM_P2
2021/05/05 00:01:52;;;;;;;57.38;2.33;;;7.50;99.90;;;;;;5113133;28;20229;-68
2021/05/05 00:04:19;;;;;;;57.47;2.60;;;7.40;99.90;;;;;;5113019;28;20283;-67
2021/05/05 00:06:46;;;;;;;57.55;2.42;;;7.40;99.90;;;;;;5113321;28;20300;-67
2021/05/05 00:09:13;;;;;;;57.38;2.47;;;7.30;99.90;;;;;;5113023;28;20244;-68
2021/05/05 00:11:40;;;;;;;57.70;2.40;;;7.40;99.90;;;;;;5112576;28;20307;-67
2021/05/05 00:14:07;;;;;;;57.45;2.30;;;7.40;99.90;;;;;;5112516;28;20250;-67
2021/05/05 00:16:34;;;;;;;57.67;2.38;;;7.40;99.90;;;;;;5112754;28;20243;-67
2021/05/05 00:19:00;;;;;;;57.50;2.55;;;7.30;99.90;;;;;;5112461;28;20227;-67
2021/05/05 00:21:27;;;;;;;57.58;2.35;;;7.30;99.90;;;;;;5112909;28;20252;-67
2021/05/05 00:23:53;;;;;;;58.80;3.47;;;7.20;99.90;;;;;;5112469;28;20207;-67
2021/05/05 00:26:19;;;;;;;57.70;2.60;;;7.30;99.90;;;;;;5112857;28;20301;-67
2021/05/05 00:28:46;;;;;;;57.53;2.30;;;7.30;99.90;;;;;;5112677;28;20200;-67
2021/05/05 00:31:12;;;;;;;57.65;2.40;;;7.20;99.90;;;;;;5112399;28;20227;-67
2021/05/05 00:33:39;;;;;;;57.58;2.70;;;7.30;99.90;;;;;;5112226;28;20205;-67
2021/05/05 00:36:07;;;;;;;57.60;2.45;;;7.20;99.90;;;;;;5112706;28;20299;-67
2021/05/05 00:38:33;;;;;;;57.58;2.40;;;7.20;99.90;;;;;;5111950;28;20235;-67
2021/05/05 00:40:59;;;;;;;58.00;2.60;;;7.10;99.90;;;;;;5112015;28;20250;-68
2021/05/05 00:43:26;;;;;;;57.80;2.45;;;7.10;99.90;;;;;;5112225;28;20737;-67
2021/05/05 00:45:52;;;;;;;57.45;2.38;;;7.10;99.90;;;;;;5112099;28;20645;-68
2021/05/05 00:48:18;;;;;;;57.78;2.58;;;7.10;99.90;;;;;;5112102;28;20306;-68
2021/05/05 00:50:46;;;;;;;57.78;2.47;;;7.10;99.90;;;;;;5112482;28;20255;-69
2021/05/05 00:53:12;;;;;;;57.47;2.30;;;7.10;99.90;;;;;;5111817;28;20754;-69
2021/05/05 00:55:39;;;;;;;57.35;2.30;;;7.10;99.90;;;;;;5112133;28;20236;-69
2021/05/05 00:58:05;;;;;;;57.60;2.20;;;7.10;99.90;;;;;;5112396;28;20221;-68
2021/05/05 01:00:33;;;;;;;57.50;2.40;;;7.20;99.90;;;;;;5111984;28;20248;-68
2021/05/05 01:02:59;;;;;;;57.60;2.50;;;7.20;99.90;;;;;;5111846;28;20290;-68
2021/05/05 01:05:25;;;;;;;57.47;2.20;;;7.10;99.90;;;;;;5111811;28;20288;-68
2021/05/05 01:07:52;;;;;;;57.47;2.30;;;7.10;99.90;;;;;;5112246;28;20290;-68
2021/05/05 01:10:20;;;;;;;57.78;2.42;;;7.10;99.90;;;;;;5112002;28;20262;-68
2021/05/05 01:12:46;;;;;;;57.70;2.67;;;7.10;99.90;;;;;;5111266;28;20243;-67
2021/05/05 01:15:15;;;;;;;60.40;2.50;;;7.10;99.90;;;;;;5111882;28;20218;-68
2021/05/05 01:17:42;;;;;;;57.58;2.60;;;7.10;99.90;;;;;;5112219;28;20306;-68
2021/05/05 01:20:10;;;;;;;57.67;2.33;;;7.10;99.90;;;;;;5111845;28;20237;-67
2021/05/05 01:22:37;;;;;;;57.58;2.22;;;7.10;99.90;;;;;;5111464;28;20207;-68
2021/05/05 01:25:05;;;;;;;57.67;2.55;;;7.10;99.90;;;;;;5111652;28;20617;-68
2021/05/05 01:27:31;;;;;;;57.60;2.40;;;7.20;99.90;;;;;;5111607;28;20211;-68
2021/05/05 01:29:58;;;;;;;57.60;2.40;;;7.20;99.90;;;;;;5111956;28;20329;-67
2021/05/05 01:32:25;;;;;;;57.58;2.63;;;7.20;99.90;;;;;;5111619;28;20245;-68
2021/05/05 01:34:52;;;;;;;57.38;2.45;;;7.30;99.90;;;;;;5111715;28;20204;-68
2021/05/05 01:37:18;;;;;;;57.50;2.20;;;7.20;99.90;;;;;;5111764;28;20219;-67
2021/05/05 01:39:46;;;;;;;57.58;2.40;;;7.20;99.90;;;;;;5111502;28;20314;-67
2021/05/05 01:42:13;;;;;;;57.50;2.50;;;7.20;99.90;;;;;;5110968;28;20561;-67
2021/05/05 01:44:40;;;;;;;57.27;2.50;;;7.20;99.90;;;;;;5111608;28;20294;-68
2021/05/05 01:47:10;;;;;;;57.60;2.63;;;7.20;99.90;;;;;;5111695;28;20449;-68
2021/05/05 01:49:42;;;;;;;57.43;2.47;;;7.30;99.90;;;;;;5111750;28;20198;-68
2021/05/05 01:52:08;;;;;;;57.50;2.45;;;7.30;99.90;;;;;;5111377;28;20822;-68
2021/05/05 01:54:37;;;;;;;57.50;2.38;;;7.30;99.90;;;;;;5111215;28;20205;-67
2021/05/05 01:57:32;;;;;;;57.47;2.60;;;7.20;99.90;;;;;;5111722;28;20207;-68
2021/05/05 01:59:59;;;;;;;57.60;2.53;;;7.20;99.90;;;;;;5113288;28;20712;-68
2021/05/05 02:02:27;;;;;;;57.47;2.50;;;7.10;99.90;;;;;;5115054;28;20696;-68
2021/05/05 02:04:54;;;;;;;57.38;2.40;;;7.10;99.90;;;;;;5115199;28;20482;-68
2021/05/05 02:07:21;;;;;;;57.58;2.30;;;7.10;99.90;;;;;;5116019;28;20296;-68
2021/05/05 02:09:47;;;;;;;57.50;2.70;;;7.10;99.90;;;;;;5115263;28;20268;-68
2021/05/05 02:12:14;;;;;;;57.47;2.58;;;7.10;99.90;;;;;;5111377;28;20306;-68
2021/05/05 02:14:42;;;;;;;57.67;2.50;;;7.10;99.90;;;;;;5094881;28;20209;-68
2021/05/05 02:17:08;;;;;;;57.65;2.40;;;7.00;99.90;;;;;;5094658;28;20872;-68
2021/05/05 02:19:34;;;;;;;57.38;2.30;;;7.00;99.90;;;;;;5094391;28;20225;-68
2021/05/05 02:22:01;;;;;;;57.90;2.60;;;7.00;99.90;;;;;;5094610;28;20297;-68
2021/05/05 02:24:27;;;;;;;57.45;2.30;;;7.00;99.90;;;;;;5094781;28;20201;-68
2021/05/05 02:26:53;;;;;;;57.80;2.58;;;7.00;99.90;;;;;;5094653;28;20201;-68
2021/05/05 02:29:20;;;;;;;57.47;2.30;;;7.00;99.90;;;;;;5094811;28;20738;-68
2021/05/05 02:31:49;;;;;;;57.58;2.40;;;7.10;99.90;;;;;;5094564;28;20596;-68
2021/05/05 02:34:15;;;;;;;57.45;2.22;;;7.10;99.90;;;;;;5094180;28;20206;-68
2021/05/05 02:36:42;;;;;;;57.28;2.20;;;7.10;99.90;;;;;;5094631;28;20303;-68
2021/05/05 02:39:10;;;;;;;57.47;2.33;;;7.10;99.90;;;;;;5094483;28;20230;-68
2021/05/05 02:41:38;;;;;;;57.50;2.25;;;7.10;99.90;;;;;;5094345;28;20228;-69
2021/05/05 02:44:06;;;;;;;57.23;2.40;;;7.20;99.90;;;;;;5108373;28;20232;-69
2021/05/05 02:46:32;;;;;;;57.55;2.30;;;7.20;99.90;;;;;;5114424;28;20482;-69
2021/05/05 02:48:59;;;;;;;57.50;2.40;;;7.20;99.90;;;;;;5114714;28;20295;-69
2021/05/05 02:51:26;;;;;;;57.58;2.35;;;7.20;99.90;;;;;;5114662;28;20283;-69
2021/05/05 02:53:52;;;;;;;57.47;2.30;;;7.20;99.90;;;;;;5114065;28;20211;-69
2021/05/05 02:56:19;;;;;;;57.60;2.60;;;7.20;99.90;;;;;;5114327;28;20530;-69
2021/05/05 02:58:45;;;;;;;57.55;2.30;;;7.20;99.90;;;;;;5114655;28;20471;-69
2021/05/05 03:01:11;;;;;;;57.72;2.40;;;7.20;99.90;;;;;;5114125;28;20324;-69
2021/05/05 03:03:38;;;;;;;57.40;2.58;;;7.10;99.90;;;;;;5113700;28;20304;-69
2021/05/05 03:06:05;;;;;;;57.47;2.50;;;7.10;99.90;;;;;;5114511;28;20246;-70
2021/05/05 03:08:31;;;;;;;57.50;2.50;;;7.10;99.90;;;;;;5114103;28;20327;-70
2021/05/05 03:10:59;;;;;;;57.55;2.53;;;7.10;99.90;;;;;;5113793;28;20242;-70
2021/05/05 03:13:25;;;;;;;57.60;2.60;;;7.00;99.90;;;;;;5113497;28;20300;-71
2021/05/05 03:15:52;;;;;;;57.67;2.70;;;7.00;99.90;;;;;;5114594;28;20235;-71
2021/05/05 03:18:18;;;;;;;57.72;2.60;;;6.90;99.90;;;;;;5113830;27;20259;-71
2021/05/05 03:20:45;;;;;;;57.45;2.50;;;6.90;99.90;;;;;;5113887;28;20794;-72
2021/05/05 03:23:12;;;;;;;57.47;2.40;;;6.80;99.90;;;;;;5113913;28;20627;-71
2021/05/05 03:25:40;;;;;;;57.58;2.60;;;6.80;99.90;;;;;;5113929;28;20295;-71
2021/05/05 03:28:06;;;;;;;57.67;2.45;;;6.80;99.90;;;;;;5113803;28;20192;-71
2021/05/05 03:30:33;;;;;;;57.30;2.45;;;6.80;99.90;;;;;;5113554;28;20259;-71
2021/05/05 03:32:59;;;;;;;57.58;2.58;;;6.80;99.90;;;;;;5113727;28;20246;-71
2021/05/05 03:35:26;;;;;;;57.70;2.42;;;6.80;99.90;;;;;;5113441;28;20731;-72
2021/05/05 03:37:52;;;;;;;57.70;2.42;;;6.80;99.90;;;;;;5113762;28;20290;-71
2021/05/05 03:40:19;;;;;;;57.47;2.55;;;6.80;99.90;;;;;;5113690;28;20312;-71
2021/05/05 03:42:46;;;;;;;57.70;2.47;;;6.70;99.90;;;;;;5113326;28;20287;-71
2021/05/05 03:45:13;;;;;;;57.78;2.53;;;6.70;99.90;;;;;;5096950;28;20212;-71
2021/05/05 03:47:39;;;;;;;57.67;2.50;;;6.80;99.90;;;;;;5093280;28;20592;-72
2021/05/05 03:50:08;;;;;;;57.58;2.88;;;6.70;99.90;;;;;;5093105;28;20799;-72
2021/05/05 03:52:34;;;;;;;57.67;2.60;;;6.70;99.90;;;;;;5092509;28;20246;-72
2021/05/05 03:55:01;;;;;;;57.60;2.60;;;6.70;99.90;;;;;;5092623;28;20694;-72
2021/05/05 03:57:28;;;;;;;57.55;2.50;;;6.70;99.90;;;;;;5092830;28;20685;-72
2021/05/05 03:59:54;;;;;;;57.75;2.70;;;6.70;99.90;;;;;;5093003;28;20311;-72
2021/05/05 04:02:21;;;;;;;57.58;2.70;;;6.70;99.90;;;;;;5092555;28;20215;-72
2021/05/05 04:04:47;;;;;;;57.70;2.78;;;6.70;99.90;;;;;;5092695;28;20207;-73
2021/05/05 04:07:14;;;;;;;57.38;2.47;;;6.80;99.90;;;;;;5092960;28;20208;-72
2021/05/05 04:09:41;;;;;;;57.50;2.50;;;6.70;99.90;;;;;;5092647;28;20287;-72
2021/05/05 04:12:10;;;;;;;57.75;2.60;;;6.80;99.90;;;;;;5092205;28;20461;-73
2021/05/05 04:14:37;;;;;;;57.47;2.40;;;6.80;99.90;;;;;;5098806;28;20208;-73
2021/05/05 04:17:04;;;;;;;57.45;2.50;;;6.80;99.90;;;;;;5113162;28;20211;-73
2021/05/05 04:19:30;;;;;;;57.67;2.45;;;6.80;99.90;;;;;;5112646;28;20225;-73
2021/05/05 04:21:56;;;;;;;57.42;2.53;;;6.80;99.90;;;;;;5112046;28;20219;-73
2021/05/05 04:24:23;;;;;;;57.45;2.50;;;6.80;99.90;;;;;;5112651;28;20324;-73
2021/05/05 04:26:50;;;;;;;57.38;2.58;;;6.80;99.90;;;;;;5112726;28;20323;-73
2021/05/05 04:29:18;;;;;;;57.45;2.42;;;6.80;99.90;;;;;;5112907;28;20254;-73
2021/05/05 04:31:46;;;;;;;57.55;2.30;;;6.80;99.90;;;;;;5112772;28;20230;-73
2021/05/05 04:34:13;;;;;;;57.50;2.40;;;6.70;99.90;;;;;;5112254;28;20211;-73
2021/05/05 04:36:39;;;;;;;57.30;2.45;;;6.70;99.90;;;;;;5112607;28;20682;-73
2021/05/05 04:39:06;;;;;;;57.38;2.45;;;6.70;99.90;;;;;;5112199;28;20614;-73
2021/05/05 04:41:33;;;;;;;57.58;2.40;;;6.70;99.90;;;;;;5112733;28;20234;-72
2021/05/05 04:43:59;;;;;;;57.70;2.50;;;6.60;99.90;;;;;;5112258;28;20203;-72
2021/05/05 04:46:26;;;;;;;57.58;2.50;;;6.60;99.90;;;;;;5112185;28;20295;-72
2021/05/05 04:48:53;;;;;;;57.47;2.50;;;6.60;99.90;;;;;;5112204;28;20291;-72
2021/05/05 04:51:19;;;;;;;57.58;2.45;;;6.60;99.90;;;;;;5112300;28;20254;-72
2021/05/05 04:53:46;;;;;;;57.78;2.50;;;6.60;99.90;;;;;;5111700;28;20286;-72
2021/05/05 04:56:12;;;;;;;57.40;2.40;;;6.60;99.90;;;;;;5112429;28;20206;-72
2021/05/05 04:58:39;;;;;;;57.60;2.40;;;6.60;99.90;;;;;;5112227;28;20314;-71
2021/05/05 05:01:05;;;;;;;57.47;2.25;;;6.60;99.90;;;;;;5112362;28;20255;-72
2021/05/05 05:03:32;;;;;;;57.38;2.40;;;6.60;99.90;;;;;;5111732;28;20262;-73
2021/05/05 05:06:00;;;;;;;57.50;2.50;;;6.60;99.90;;;;;;5112050;28;20242;-72
2021/05/05 05:08:26;;;;;;;57.67;2.45;;;6.60;99.90;;;;;;5112314;28;20208;-71
2021/05/05 05:10:52;;;;;;;57.70;2.42;;;6.60;99.90;;;;;;5112189;28;20308;-72
2021/05/05 05:13:19;;;;;;;57.38;2.42;;;6.60;99.90;;;;;;5111724;28;20254;-72
2021/05/05 05:15:46;;;;;;;57.50;2.42;;;6.60;99.90;;;;;;5111324;28;20288;-72
2021/05/05 05:18:12;;;;;;;57.47;2.40;;;6.70;99.90;;;;;;5111823;28;20645;-72
2021/05/05 05:20:39;;;;;;;57.60;2.30;;;6.70;99.90;;;;;;5112142;28;20314;-72
2021/05/05 05:23:06;;;;;;;58.00;2.50;;;6.70;99.90;;;;;;5111434;28;20211;-72
2021/05/05 05:25:32;;;;;;;57.58;2.40;;;6.70;99.90;;;;;;5111715;28;20230;-71
2021/05/05 05:27:59;;;;;;;57.47;2.40;;;6.70;99.90;;;;;;5111769;28;20259;-70
2021/05/05 05:30:25;;;;;;;57.47;2.60;;;6.70;99.90;;;;;;5111965;28;20489;-69
2021/05/05 05:32:52;;;;;;;57.65;2.30;;;6.70;99.90;;;;;;5111459;28;20200;-69
2021/05/05 05:35:19;;;;;;;57.47;2.50;;;6.70;99.90;;;;;;5115670;28;20283;-68
2021/05/05 05:37:45;;;;;;;57.60;2.40;;;6.70;99.90;;;;;;5115996;28;20211;-68
2021/05/05 05:40:14;;;;;;;57.58;2.35;;;6.70;99.90;;;;;;5115582;28;20322;-68
2021/05/05 05:42:40;;;;;;;57.65;2.25;;;6.70;99.90;;;;;;5116160;28;20336;-69
2021/05/05 05:45:07;;;;;;;57.70;2.50;;;6.70;99.90;;;;;;5115800;28;20296;-69
2021/05/05 05:47:34;;;;;;;57.60;2.47;;;6.80;99.90;;;;;;5115948;28;20256;-69
2021/05/05 05:50:00;;;;;;;57.45;2.40;;;6.90;99.90;;;;;;5115501;28;20251;-69
2021/05/05 05:52:27;;;;;;;57.38;2.15;;;7.10;99.90;;;;;;5115525;28;20202;-69
2021/05/05 05:54:54;;;;;;;57.45;2.20;;;7.10;99.90;;;;;;5115619;28;20299;-69
2021/05/05 05:57:21;;;;;;;57.53;2.50;;;7.20;99.90;;;;;;5115856;28;20214;-69
2021/05/05 05:59:47;;;;;;;57.25;2.33;;;7.30;99.90;;;;;;5115519;28;20255;-68
2021/05/05 06:02:14;;;;;;;57.38;2.10;;;7.30;99.90;;;;;;5115256;28;20297;-72
2021/05/05 06:04:40;;;;;;;57.45;2.40;;;7.30;99.90;;;;;;5115168;28;20244;-68
2021/05/05 06:07:06;;;;;;;57.38;2.30;;;7.40;99.90;;;;;;5115357;28;20795;-68
2021/05/05 06:09:33;;;;;;;57.38;2.47;;;7.40;99.90;;;;;;5115291;28;20201;-68
2021/05/05 06:11:59;;;;;;;57.50;2.50;;;7.50;99.90;;;;;;5114870;28;20808;-68
2021/05/05 06:14:26;;;;;;;57.47;2.50;;;7.50;99.90;;;;;;5115214;28;20635;-68
2021/05/05 06:16:53;;;;;;;57.35;2.50;;;7.50;99.90;;;;;;5114589;28;20300;-68
2021/05/05 06:19:19;;;;;;;57.40;2.30;;;7.60;99.90;;;;;;5114770;28;20229;-68
2021/05/05 06:21:45;;;;;;;57.40;2.60;;;7.60;99.90;;;;;;5115066;28;20316;-69
2021/05/05 06:24:12;;;;;;;57.50;2.47;;;7.60;99.90;;;;;;5114736;28;20488;-68
2021/05/05 06:26:39;;;;;;;57.28;2.40;;;7.60;99.90;;;;;;5115157;28;20299;-68
2021/05/05 06:29:06;;;;;;;57.30;2.30;;;7.60;99.90;;;;;;5114903;28;20293;-68
2021/05/05 06:31:33;;;;;;;57.53;2.40;;;7.60;99.90;;;;;;5114891;28;20466;-68
2021/05/05 06:34:00;;;;;;;57.33;2.40;;;7.60;99.90;;;;;;5114292;28;21009;-68
2021/05/05 06:36:26;;;;;;;57.80;2.60;;;7.60;99.90;;;;;;5114837;28;20456;-68
2021/05/05 06:38:52;;;;;;;57.45;2.38;;;7.60;99.90;;;;;;5114831;27;20567;-68
2021/05/05 06:41:19;;;;;;;57.47;2.30;;;7.60;99.90;;;;;;5114867;28;20224;-68
2021/05/05 06:43:45;;;;;;;57.40;2.38;;;7.60;99.90;;;;;;5114105;28;20211;-67
2021/05/05 06:46:12;;;;;;;57.60;2.30;;;7.70;99.90;;;;;;5113551;28;20211;-67
2021/05/05 06:48:39;;;;;;;57.43;2.27;;;7.90;99.90;;;;;;5113543;28;20470;-67
2021/05/05 06:51:05;;;;;;;57.43;2.40;;;8.10;99.90;;;;;;5114515;28;20474;-68
2021/05/05 06:53:32;;;;;;;57.07;2.33;;;8.20;99.90;;;;;;5113509;28;20533;-67
2021/05/05 06:55:58;;;;;;;57.40;2.50;;;8.30;99.90;;;;;;5114004;28;20439;-67
2021/05/05 06:58:25;;;;;;;57.17;2.40;;;8.40;99.90;;;;;;5114441;28;20490;-68
2021/05/05 07:00:51;;;;;;;57.30;2.50;;;8.40;99.90;;;;;;5114306;28;20497;-67
2021/05/05 07:03:17;;;;;;;57.47;2.60;;;8.50;99.90;;;;;;5114256;28;20577;-67
2021/05/05 07:05:45;;;;;;;57.27;2.47;;;8.50;99.90;;;;;;5114228;28;20544;-67
2021/05/05 07:08:11;;;;;;;57.30;2.60;;;8.60;99.90;;;;;;5114341;28;20453;-67
2021/05/05 07:10:37;;;;;;;57.27;2.57;;;8.50;99.90;;;;;;5114253;27;20464;-67
2021/05/05 07:13:04;;;;;;;57.30;2.40;;;8.50;99.90;;;;;;5114013;28;20458;-67
2021/05/05 07:15:31;;;;;;;57.27;2.43;;;8.40;99.90;;;;;;5113989;28;20484;-67
2021/05/05 07:17:58;;;;;;;57.33;2.40;;;8.40;99.90;;;;;;5114256;28;20605;-67
2021/05/05 07:20:24;;;;;;;57.33;2.70;;;8.50;99.90;;;;;;5113880;28;20483;-67
2021/05/05 07:22:51;;;;;;;57.23;2.30;;;8.50;99.90;;;;;;5113692;28;20543;-67
2021/05/05 07:25:18;;;;;;;57.50;2.33;;;8.70;99.90;;;;;;5113918;28;20534;-67
2021/05/05 07:27:44;;;;;;;57.47;2.37;;;8.70;99.90;;;;;;5113899;28;21006;-68
2021/05/05 07:30:13;;;;;;;57.17;2.20;;;8.70;99.90;;;;;;5113632;28;20473;-67
2021/05/05 07:32:40;;;;;;;57.07;2.00;;;8.60;99.90;;;;;;5113495;28;20455;-68
2021/05/05 07:35:09;;;;;;;57.33;2.50;;;8.50;99.90;;;;;;5113934;28;20447;-67
2021/05/05 07:38:00;;;;;;;57.30;2.50;;;8.50;99.90;;;;;;5113882;28;20452;-67
2021/05/05 07:46:01;;;;;;;57.27;2.30;;;8.50;99.90;;;;;;5113566;28;20423;-68
2021/05/05 07:48:30;;;;;;;57.27;2.40;;;8.40;99.70;;;;;;5113913;28;20442;-69
2021/05/05 07:50:57;;;;;;;57.33;2.40;;;8.30;99.90;;;;;;5113515;28;20467;-69
2021/05/05 07:53:24;;;;;;;57.30;2.40;;;8.20;99.00;;;;;;5113404;28;20579;-68
2021/05/05 07:55:54;;;;;;;57.27;2.40;;;8.10;98.00;;;;;;5113129;28;20476;-68
2021/05/05 07:58:21;;;;;;;57.17;2.00;;;8.00;92.70;;;;;;5112274;28;20538;-69
2021/05/05 08:00:48;;;;;;;56.93;2.30;;;7.90;90.90;;;;;;5113349;28;20474;-69
2021/05/05 08:03:14;;;;;;;57.20;2.33;;;7.90;88.90;;;;;;5112373;28;20948;-68
2021/05/05 08:05:40;;;;;;;57.27;2.30;;;7.90;83.00;;;;;;5113087;28;20534;-68
2021/05/05 08:08:07;;;;;;;57.13;2.40;;;8.00;79.00;;;;;;5113512;28;20534;-68
2021/05/05 08:10:33;;;;;;;57.57;2.80;;;8.20;69.80;;;;;;5113012;28;20475;-69
2021/05/05 08:13:00;;;;;;;57.35;2.28;;;8.40;73.10;;;;;;5112859;28;20869;-69
2021/05/05 08:15:30;;;;;;;57.13;2.30;;;8.50;72.30;;;;;;5112822;28;20208;-69
2021/05/05 08:17:57;;;;;;;57.27;2.40;;;8.60;73.30;;;;;;5112847;28;20463;-68
2021/05/05 08:20:23;;;;;;;57.23;2.30;;;8.60;68.80;;;;;;5113324;28;20482;-69
2021/05/05 08:22:49;;;;;;;57.17;2.20;;;8.60;69.90;;;;;;5112873;28;20535;-69
2021/05/05 08:25:16;;;;;;;57.20;2.37;;;8.60;73.30;;;;;;5111660;28;20543;-69
2021/05/05 08:27:42;;;;;;;57.27;2.33;;;8.70;71.30;;;;;;5111922;28;20527;-69
2021/05/05 08:30:11;;;;;;;57.07;2.40;;;8.70;70.70;;;;;;5112288;28;20463;-68
2021/05/05 08:32:38;;;;;;;57.20;2.60;;;8.70;67.40;;;;;;5112469;28;20869;-69
2021/05/05 08:35:05;;;;;;;57.20;2.40;;;8.60;66.00;;;;;;5112984;28;20540;-67
2021/05/05 08:37:31;;;;;;;57.63;2.30;;;8.30;63.60;;;;;;5112570;28;20452;-67
2021/05/05 08:39:58;;;;;;;57.80;3.33;;;8.30;66.50;;;;;;5112166;28;20496;-67
2021/05/05 08:42:25;;;;;;;57.37;2.40;;;8.10;65.20;;;;;;5112369;28;20454;-69
2021/05/05 08:44:52;;;;;;;57.30;2.40;;;8.00;66.70;;;;;;5112387;28;20513;-68
2021/05/05 08:47:20;;;;;;;57.60;2.63;;;7.90;68.10;;;;;;5112355;28;20486;-67
2021/05/05 08:49:47;;;;;;;57.50;2.70;;;7.90;69.20;;;;;;5112063;28;20241;-67
2021/05/05 08:52:13;;;;;;;57.23;2.70;;;7.90;73.10;;;;;;5112010;28;20442;-67
2021/05/05 08:54:39;;;;;;;57.60;2.80;;;8.10;61.90;;;;;;5112045;28;20537;-67
2021/05/05 08:57:06;;;;;;;57.40;2.70;;;8.30;65.90;;;;;;5112089;28;20479;-68
2021/05/05 08:59:33;;;;;;;57.50;2.33;;;8.60;64.30;;;;;;5111911;28;20567;-68
2021/05/05 09:02:00;;;;;;;56.97;2.30;;;8.80;64.50;;;;;;5111594;28;20818;-68
2021/05/05 09:04:28;;;;;;;56.87;2.30;;;9.00;65.30;;;;;;5111874;28;20810;-68
2021/05/05 09:06:56;;;;;;;57.20;2.27;;;9.10;60.50;;;;;;5112004;28;20469;-67
2021/05/05 09:09:40;;;;;;;56.87;2.40;;;9.20;54.00;;;;;;5111597;28;21013;-68
2021/05/05 09:12:15;;;;;;;57.27;2.23;;;9.10;60.50;;;;;;5111279;28;20452;-67
2021/05/05 09:14:50;;;;;;;56.87;2.03;;;9.20;59.60;;;;;;5111678;28;21010;-68
2021/05/05 09:17:17;;;;;;;57.03;2.17;;;9.30;58.10;;;;;;5111804;28;20461;-67
2021/05/05 09:19:46;;;;;;;57.20;2.43;;;9.30;68.20;;;;;;5111653;28;21001;-67
2021/05/05 09:22:12;;;;;;;57.07;2.20;;;9.60;50.40;;;;;;5111982;28;20452;-67
2021/05/05 09:24:39;;;;;;;57.87;2.93;;;9.50;61.50;;;;;;5111422;28;20457;-67
2021/05/05 09:27:07;;;;;;;57.30;2.40;;;9.80;52.90;;;;;;5111461;28;20448;-68
2021/05/05 09:29:44;;;;;;;57.57;2.70;;;9.90;46.00;;;;;;5112018;28;20444;-68
2021/05/05 09:32:12;;;;;;;57.40;2.47;;;9.80;51.30;;;;;;5111618;28;20458;-68
2021/05/05 09:34:39;;;;;;;57.20;2.40;;;9.80;47.00;;;;;;5111455;28;20502;-67
2021/05/05 09:37:08;;;;;;;57.13;2.37;;;9.60;49.70;;;;;;5111369;28;20441;-67
2021/05/05 09:39:38;;;;;;;57.07;2.40;;;9.80;54.30;;;;;;5111792;28;20484;-67
2021/05/05 09:42:25;;;;;;;57.23;2.30;;;10.00;41.70;;;;;;5111554;28;20902;-67
2021/05/05 09:44:56;;;;;;;57.17;2.50;;;10.20;40.60;;;;;;5111382;28;20477;-67
2021/05/05 09:47:22;;;;;;;57.20;2.40;;;10.20;45.70;;;;;;5111478;28;20457;-66
2021/05/05 09:49:49;;;;;;;57.17;2.33;;;10.20;45.20;;;;;;5111619;28;20483;-67
2021/05/05 09:52:25;;;;;;;57.33;2.37;;;10.10;35.80;;;;;;5111456;28;20501;-67
2021/05/05 09:54:58;;;;;;;57.10;2.10;;;10.00;43.10;;;;;;5111483;28;20817;-66
2021/05/05 09:57:26;;;;;;;57.07;2.20;;;10.10;41.20;;;;;;5111550;28;20452;-67
2021/05/05 10:00:06;;;;;;;57.13;2.37;;;10.10;44.50;;;;;;5111177;28;21153;-67
2021/05/05 10:02:44;;;;;;;57.17;2.20;;;10.20;39.20;;;;;;5111431;28;20499;-67
2021/05/05 10:05:12;;;;;;;57.17;1.97;;;10.50;41.10;;;;;;5111308;28;20480;-67
2021/05/05 10:07:56;;;;;;;56.97;2.20;;;10.70;41.10;;;;;;5111488;28;20532;-66
2021/05/05 10:10:25;;;;;;;57.10;2.27;;;11.00;41.70;;;;;;5111671;28;20530;-67
2021/05/05 10:12:52;;;;;;;56.87;2.10;;;11.60;41.00;;;;;;5111034;28;20961;-68
2021/05/05 10:15:19;;;;;;;57.33;2.33;;;12.90;35.50;;;;;;5111202;28;20527;-67
2021/05/05 10:17:48;;;;;;;57.13;2.50;;;14.00;27.20;;;;;;5111313;28;20460;-67
2021/05/05 10:20:17;;;;;;;58.63;2.60;;;14.30;26.50;;;;;;5111274;28;20520;-67
2021/05/05 10:22:43;;;;;;;57.30;2.20;;;14.30;29.10;;;;;;5114648;28;20523;-66
2021/05/05 10:25:15;;;;;;;57.17;2.40;;;13.60;32.30;;;;;;5114784;28;20883;-68
2021/05/05 10:27:42;;;;;;;57.43;2.40;;;13.70;42.80;;;;;;5115015;28;20481;-66
2021/05/05 10:30:10;;;;;;;57.27;2.40;;;13.70;27.00;;;;;;5115069;28;20915;-66
2021/05/05 10:32:38;;;;;;;57.23;2.20;;;14.00;27.80;;;;;;5114853;28;20534;-67
2021/05/05 10:35:06;;;;;;;57.97;2.90;;;14.50;25.20;;;;;;5114503;28;20480;-67
2021/05/05 10:37:43;;;;;;;57.60;2.47;;;15.40;29.80;;;;;;5114739;28;20484;-66
2021/05/05 10:40:19;;;;;;;57.33;2.40;;;14.80;26.30;;;;;;5114697;28;20568;-67
2021/05/05 10:42:55;;;;;;;57.23;2.30;;;15.10;27.20;;;;;;5114779;28;20450;-66
2021/05/05 10:45:30;;;;;;;57.27;2.33;;;15.00;25.00;;;;;;5114551;28;20480;-67
2021/05/05 10:48:11;;;;;;;57.17;2.30;;;14.70;23.30;;;;;;5114638;28;20525;-66
2021/05/05 10:50:58;;;;;;;57.17;2.23;;;13.70;29.70;;;;;;5114884;28;20456;-66
2021/05/05 10:53:26;;;;;;;57.60;2.87;;;12.60;27.80;;;;;;5114461;28;20448;-66
2021/05/05 10:55:56;;;;;;;57.17;2.20;;;11.70;31.70;;;;;;5114245;28;20450;-66
2021/05/05 10:58:25;;;;;;;57.57;2.50;;;10.70;39.00;;;;;;5114233;28;20972;-67
2021/05/05 11:00:57;;;;;;;57.40;2.47;;;9.70;47.60;;;;;;5114905;28;20534;-67
2021/05/05 11:03:59;;;;;;;57.40;2.40;;;8.80;52.40;;;;;;5114188;28;20536;-67
2021/05/05 11:06:57;;;;;;;57.58;2.38;;;7.80;61.40;;;;;;5114182;28;20473;-66
2021/05/05 11:09:41;;;;;;;57.78;2.42;;;7.20;73.40;;;;;;5114504;28;20290;-67
2021/05/05 11:12:46;;;;;;;57.90;2.70;;;6.80;83.90;;;;;;5114007;28;20728;-67
2021/05/05 11:15:15;;;;;;;57.90;2.33;;;6.50;84.50;;;;;;5114070;28;20268;-67
2021/05/05 11:17:41;;;;;;;57.58;2.63;;;6.20;90.50;;;;;;5114044;28;20218;-68
2021/05/05 11:20:09;;;;;;;57.67;2.60;;;6.00;96.30;;;;;;5113891;28;20420;-68
2021/05/05 11:22:48;;;;;;;58.20;3.25;;;5.90;99.90;;;;;;5113673;28;20727;-67
2021/05/05 11:25:25;;;;;;;57.58;3.30;;;5.80;99.90;;;;;;5113758;28;20258;-67
2021/05/05 11:27:54;;;;;;;57.22;2.45;;;5.90;99.90;;;;;;5114276;28;20272;-67
2021/05/05 11:30:49;;;;;;;57.80;2.47;;;6.10;99.90;;;;;;5114054;28;20219;-67
2021/05/05 11:33:16;;;;;;;57.75;2.70;;;6.30;99.90;;;;;;5114068;28;20204;-67
2021/05/05 11:35:42;;;;;;;57.75;2.63;;;6.60;99.90;;;;;;5113185;28;20295;-67
2021/05/05 11:38:19;;;;;;;57.47;2.65;;;7.10;99.90;;;;;;5109942;28;20703;-66
2021/05/05 11:41:00;;;;;;;57.27;2.37;;;8.00;99.90;;;;;;5093474;28;20225;-67
2021/05/05 11:43:31;;;;;;;57.27;2.33;;;10.00;99.10;;;;;;5095413;28;21110;-65
2021/05/05 11:46:00;;;;;;;57.10;2.40;;;11.50;66.30;;;;;;5093220;28;20972;-64
2021/05/05 11:48:40;;;;;;;57.50;2.57;;;12.30;60.00;;;;;;5092910;28;20442;-65
2021/05/05 11:51:24;;;;;;;57.13;2.50;;;12.40;50.60;;;;;;5093159;28;20469;-65
2021/05/05 11:53:51;;;;;;;57.23;2.20;;;11.80;49.00;;;;;;5092653;28;20454;-65
2021/05/05 11:56:20;;;;;;;57.33;2.30;;;12.20;58.70;;;;;;5092910;28;20590;-65
2021/05/05 11:58:58;;;;;;;57.50;2.60;;;13.90;48.90;;;;;;5092577;28;20868;-66
2021/05/05 12:01:30;;;;;;;57.47;2.40;;;14.60;36.10;;;;;;5093081;28;20508;-65
2021/05/05 12:04:21;;;;;;;57.27;2.30;;;14.00;35.00;;;;;;5092200;28;20531;-66
2021/05/05 12:06:58;;;;;;;57.53;2.50;;;14.00;40.90;;;;;;5104821;28;20448;-65
2021/05/05 12:09:28;;;;;;;57.40;2.30;;;14.40;34.90;;;;;;5113352;28;20444;-65
2021/05/05 12:12:11;;;;;;;57.30;2.50;;;14.10;36.60;;;;;;5112784;28;21011;-66
2021/05/05 12:14:39;;;;;;;57.23;2.27;;;13.90;32.70;;;;;;5112952;28;20538;-67
2021/05/05 12:17:15;;;;;;;57.27;2.20;;;14.50;42.40;;;;;;5112935;28;20560;-66
2021/05/05 12:19:50;;;;;;;57.27;2.40;;;15.70;33.50;;;;;;5112649;28;20478;-66
2021/05/05 12:22:17;;;;;;;57.17;2.40;;;17.00;29.00;;;;;;5112732;28;20472;-66
2021/05/05 12:25:11;;;;;;;57.17;2.30;;;17.50;26.40;;;;;;5112603;28;20452;-65
2021/05/05 12:27:38;;;;;;;57.60;2.70;;;17.10;24.20;;;;;;5112850;28;20454;-65
2021/05/05 12:30:07;;;;;;;57.30;2.40;;;17.20;25.70;;;;;;5112444;28;20559;-65
2021/05/05 12:32:48;;;;;;;57.60;2.50;;;17.00;23.10;;;;;;5112494;28;20495;-65
2021/05/05 12:35:22;;;;;;;57.07;2.40;;;15.90;25.50;;;;;;5112402;28;20942;-65
2021/05/05 12:37:49;;;;;;;57.17;2.30;;;15.10;25.70;;;;;;5112314;28;20443;-65
2021/05/05 12:40:16;;;;;;;57.17;2.20;;;14.80;26.50;;;;;;5112562;28;20496;-65
2021/05/05 12:42:43;;;;;;;57.20;2.23;;;14.80;27.20;;;;;;5111201;28;20533;-66
2021/05/05 12:45:12;;;;;;;57.17;2.20;;;14.80;26.40;;;;;;5111815;28;21052;-65
2021/05/05 12:47:39;;;;;;;57.13;2.27;;;14.60;26.20;;;;;;5112282;28;20448;-66
2021/05/05 12:50:08;;;;;;;57.17;2.30;;;14.30;24.70;;;;;;5112405;28;20457;-66
2021/05/05 12:52:37;;;;;;;57.27;2.30;;;13.70;25.30;;;;;;5112462;28;20444;-65
2021/05/05 12:55:25;;;;;;;57.20;2.30;;;13.20;25.80;;;;;;5111857;28;20450;-66
2021/05/05 12:58:03;;;;;;;57.20;2.10;;;13.10;25.10;;;;;;5112499;28;20438;-66
2021/05/05 13:00:30;;;;;;;57.27;2.37;;;13.50;25.30;;;;;;5112028;28;20614;-65